Time;durP1;ratioP1;P1;durP2;ratioP2;P2;SDS_P1;SDS_P2;PMS_P1;PMS_P2;Temp;Humidity;BMP_temperature;BMP_pressure;BME280_temperature;BME280_humidity;BME280_pressure;Samples;Min_cycle;Max_cycle;Signal;HPM_P1;HPM_P2
2023/04/21 00:02:01;;;;;;;44.50;19.83;;;;;;;6.18;100.00;99477.97;12178354;19;20003;-80
2023/04/21 00:06:08;;;;;;;37.83;19.20;;;;;;;6.06;100.00;99475.16;12143201;19;19999;-81
2023/04/21 00:10:10;;;;;;;38.85;17.48;;;;;;;5.94;100.00;99473.19;12175714;19;20010;-81
2023/04/21 00:14:12;;;;;;;38.33;17.33;;;;;;;5.82;100.00;99474.97;12176836;19;20468;-81
2023/04/21 00:18:14;;;;;;;38.70;18.55;;;;;;;5.70;100.00;99472.16;12151099;19;20621;-81
2023/04/21 00:22:15;;;;;;;39.40;17.65;;;;;;;5.58;100.00;99462.19;12177724;19;20476;-81
2023/04/21 00:26:17;;;;;;;42.83;18.38;;;;;;;5.46;100.00;99454.75;12178466;19;20011;-81
2023/04/21 00:30:21;;;;;;;34.13;17.30;;;;;;;5.40;100.00;99461.09;12157587;19;20344;-81
2023/04/21 00:34:22;;;;;;;40.50;17.70;;;;;;;5.32;100.00;99461.38;12183463;19;20117;-81
2023/04/21 00:38:25;;;;;;;39.03;16.50;;;;;;;5.24;100.00;99465.25;12190583;19;20011;-81
2023/04/21 00:42:27;;;;;;;42.63;17.98;;;;;;;5.20;100.00;99457.72;12165400;19;20014;-81
2023/04/21 00:46:29;;;;;;;36.25;17.00;;;;;;;5.18;100.00;99465.31;12187832;19;20006;-81
2023/04/21 00:50:32;;;;;;;42.30;17.58;;;;;;;5.21;100.00;99462.97;12183420;19;20013;-81
2023/04/21 00:54:35;;;;;;;42.63;18.60;;;;;;;5.27;100.00;99457.69;12186515;19;20400;-81
2023/04/21 00:58:41;;;;;;;41.45;17.63;;;;;;;5.27;100.00;99458.50;12205231;19;20007;-81
2023/04/21 01:02:44;;;;;;;37.13;18.17;;;;;;;5.26;100.00;99448.63;12179718;19;20010;-83
2023/04/21 01:06:48;;;;;;;39.85;17.23;;;;;;;5.28;100.00;99460.16;12204717;19;20066;-81
2023/04/21 01:10:49;;;;;;;59.92;21.85;;;;;;;5.29;100.00;99450.91;12203041;19;20007;-81
2023/04/21 01:14:51;;;;;;;48.92;19.58;;;;;;;5.25;100.00;99449.69;12184338;19;20057;-81
2023/04/21 01:18:53;;;;;;;40.20;17.45;;;;;;;5.24;100.00;99448.03;12202444;19;20030;-81
2023/04/21 01:22:55;;;;;;;42.75;18.42;;;;;;;5.22;100.00;99450.13;12202038;19;20066;-81
2023/04/21 01:26:58;;;;;;;41.95;19.40;;;;;;;5.22;100.00;99453.69;12189010;19;20015;-82
2023/04/21 01:31:01;;;;;;;48.63;19.45;;;;;;;5.23;100.00;99460.00;12202383;19;20007;-81
2023/04/21 01:35:05;;;;;;;46.65;19.95;;;;;;;5.26;100.00;99448.63;12204202;19;20011;-81
2023/04/21 01:39:07;;;;;;;45.55;18.60;;;;;;;5.29;100.00;99450.06;12181359;19;20014;-81
2023/04/21 01:43:09;;;;;;;41.53;18.38;;;;;;;5.31;100.00;99440.59;12202365;19;20018;-81
2023/04/21 01:47:11;;;;;;;39.13;17.23;;;;;;;5.33;100.00;99438.50;12202670;19;20057;-81
2023/04/21 01:51:13;;;;;;;39.05;17.88;;;;;;;5.33;100.00;99440.38;12180960;19;20007;-82
2023/04/21 01:55:15;;;;;;;39.25;17.27;;;;;;;5.31;100.00;99454.25;12200948;19;20011;-82
2023/04/21 01:59:16;;;;;;;45.92;18.02;;;;;;;5.31;100.00;99440.59;12214149;19;20051;-83
2023/04/21 02:03:19;;;;;;;33.10;15.73;;;;;;;5.33;100.00;99438.50;12186346;19;20045;-82
2023/04/21 02:07:21;;;;;;;37.17;17.43;;;;;;;5.34;100.00;99434.69;12206698;19;20023;-81
2023/04/21 02:11:24;;;;;;;39.45;18.83;;;;;;;5.36;100.00;99437.22;12203312;19;20812;-82
2023/04/21 02:15:26;;;;;;;;;;;;;;;5.38;100.00;99452.28;12204843;19;20018;-81
2023/04/21 02:19:27;;;;;;;38.95;16.63;;;;;;;5.38;100.00;99452.28;12253224;19;19915;-80
2023/04/21 02:23:29;;;;;;;39.05;17.95;;;;;;;5.33;100.00;99443.94;12212333;19;20003;-81
2023/04/21 02:27:31;;;;;;;43.88;16.70;;;;;;;5.34;100.00;99453.81;12184855;19;20015;-82
2023/04/21 02:31:33;;;;;;;35.43;15.40;;;;;;;5.36;100.00;99446.22;12198803;19;20007;-82
2023/04/21 02:35:46;;;;;;;35.78;15.80;;;;;;;5.36;100.00;99443.50;12178531;19;21417;-81
2023/04/21 02:39:48;;;;;;;38.63;16.38;;;;;;;5.34;100.00;99451.06;12201855;19;20776;-82
2023/04/21 02:43:50;;;;;;;36.38;16.67;;;;;;;5.35;100.00;99451.91;12197244;19;20011;-81
2023/04/21 02:47:51;;;;;;;34.40;14.98;;;;;;;5.35;100.00;99450.00;12174788;19;20043;-82
2023/04/21 02:51:54;;;;;;;33.92;15.38;;;;;;;5.31;100.00;99446.06;12199236;19;20015;-81
2023/04/21 02:55:55;;;;;;;37.43;16.03;;;;;;;5.27;100.00;99444.03;12196216;19;20002;-82
2023/04/21 02:59:57;;;;;;;32.08;15.70;;;;;;;5.21;100.00;99459.41;12175970;19;20117;-82
2023/04/21 03:03:59;;;;;;;31.25;14.38;;;;;;;5.16;100.00;99461.97;12196429;19;20010;-82
2023/04/21 03:08:01;;;;;;;33.13;14.20;;;;;;;5.10;100.00;99460.13;12198327;19;20574;-82
2023/04/21 03:12:02;;;;;;;38.78;15.68;;;;;;;5.08;100.00;99459.50;12174618;19;20578;-81
2023/04/21 03:16:04;;;;;;;40.88;16.88;;;;;;;5.12;100.00;99460.75;12196873;19;20495;-82
2023/04/21 03:20:07;;;;;;;26.02;11.82;;;;;;;5.14;100.00;99455.88;12198068;19;20015;-81
2023/04/21 03:24:10;;;;;;;39.47;15.48;;;;;;;5.13;100.00;99454.22;12175498;19;20027;-81
2023/04/21 03:28:12;;;;;;;33.90;15.32;;;;;;;5.05;100.00;99454.47;12197297;19;20006;-81
2023/04/21 03:32:14;;;;;;;30.80;13.93;;;;;;;5.02;100.00;99464.78;12197197;19;20016;-81
2023/04/21 03:36:16;;;;;;;35.00;14.68;;;;;;;4.99;100.00;99448.00;12178394;19;20002;-81
2023/04/21 03:40:17;;;;;;;39.22;15.18;;;;;;;4.95;100.00;99450.34;12198857;19;19998;-81
2023/04/21 03:44:19;;;;;;;39.00;15.88;;;;;;;4.88;100.00;99451.47;12202677;19;20078;-82
2023/04/21 03:48:21;;;;;;;39.53;16.08;;;;;;;4.89;100.00;99458.59;12224721;19;19998;-81
2023/04/21 03:52:23;;;;;;;36.30;16.47;;;;;;;4.90;100.00;99452.91;12266697;19;20028;-81
2023/04/21 03:56:25;;;;;;;39.10;17.60;;;;;;;4.91;100.00;99454.59;12234127;19;20115;-82
2023/04/21 04:00:27;;;;;;;44.15;17.27;;;;;;;4.91;100.00;99454.59;12175505;19;20070;-81
2023/04/21 04:04:29;;;;;;;41.03;16.85;;;;;;;4.91;100.00;99449.16;12191357;19;20011;-81
2023/04/21 04:08:31;;;;;;;42.45;17.25;;;;;;;4.92;100.00;99448.06;12201703;19;20002;-81
2023/04/21 04:12:33;;;;;;;38.88;16.08;;;;;;;4.92;100.00;99441.78;12202278;19;20014;-82
2023/04/21 04:16:34;;;;;;;41.03;16.83;;;;;;;4.90;100.00;99444.72;12205637;19;20002;-81
2023/04/21 04:20:36;;;;;;;44.85;19.15;;;;;;;4.87;100.00;99447.91;12185040;19;20038;-82
2023/04/21 04:24:38;;;;;;;40.97;16.95;;;;;;;4.84;100.00;99442.88;12203425;19;20079;-81
2023/04/21 04:28:40;;;;;;;43.45;17.45;;;;;;;4.86;100.00;99439.94;12206567;19;20031;-81
2023/04/21 04:32:41;;;;;;;42.67;17.02;;;;;;;4.85;100.00;99435.53;12179842;19;20452;-81
2023/04/21 04:36:44;;;;;;;38.33;15.52;;;;;;;4.85;100.00;99438.25;12204481;19;20002;-82
2023/04/21 04:40:52;;;;;;;37.50;16.52;;;;;;;4.84;100.00;99451.06;12205371;19;20007;-81
2023/04/21 04:44:54;;;;;;;46.72;18.20;;;;;;;4.85;100.00;99455.50;12182376;19;20739;-81
2023/04/21 04:48:56;;;;;;;39.47;17.13;;;;;;;4.94;100.00;99456.88;12204132;19;20349;-81
2023/04/21 04:52:58;;;;;;;33.65;15.02;;;;;;;5.03;100.00;99447.38;12199934;19;20353;-81
2023/04/21 04:56:59;;;;;;;37.75;16.23;;;;;;;5.16;100.00;99453.75;12183130;19;20460;-81
2023/04/21 05:01:17;;;;;;;43.13;16.55;;;;;;;5.28;100.00;99449.25;12204269;19;20013;-81
2023/04/21 05:05:20;;;;;;;40.92;17.05;;;;;;;5.37;100.00;99445.16;12204336;19;20038;-81
2023/04/21 05:09:22;;;;;;;41.35;16.70;;;;;;;5.48;100.00;99441.69;12182981;19;20003;-81
2023/04/21 05:13:24;;;;;;;42.20;16.77;;;;;;;5.58;100.00;99440.34;12199902;19;20543;-81
2023/04/21 05:17:27;;;;;;;40.53;16.60;;;;;;;5.70;100.00;99441.25;12204445;19;20006;-81
2023/04/21 05:21:30;;;;;;;34.53;15.25;;;;;;;5.86;100.00;99442.53;12183706;19;20011;-81
2023/04/21 05:25:31;;;;;;;41.17;16.02;;;;;;;6.03;100.00;99442.78;12206038;19;20036;-81
2023/04/21 05:29:33;;;;;;;36.28;15.82;;;;;;;6.23;100.00;99440.66;12186991;19;20022;-82
2023/04/21 05:33:35;;;;;;;31.48;15.05;;;;;;;6.40;100.00;99449.06;12204158;19;20023;-81
2023/04/21 05:37:37;;;;;;;33.65;14.50;;;;;;;6.55;100.00;99451.38;12209456;19;20163;-81
2023/04/21 05:41:38;;;;;;;31.55;14.38;;;;;;;6.70;100.00;99460.00;12171874;19;20659;-81
2023/04/21 05:45:40;;;;;;;31.02;14.32;;;;;;;6.84;100.00;99458.75;12194615;19;20021;-80
2023/04/21 05:49:48;;;;;;;33.37;15.43;;;;;;;6.92;100.00;99462.19;12196795;19;20013;-81
2023/04/21 05:53:50;;;;;;;32.33;15.18;;;;;;;6.89;100.00;99448.97;12171088;19;21932;-81
2023/04/21 05:57:52;;;;;;;36.28;15.77;;;;;;;6.95;100.00;99450.78;12199991;19;20010;-82
2023/04/21 06:01:54;;;;;;;28.50;14.05;;;;;;;7.10;100.00;99467.59;12198697;19;20020;-82
2023/04/21 06:05:56;;;;;;;31.92;14.65;;;;;;;7.23;100.00;99459.16;12177901;19;20031;-81
2023/04/21 06:09:58;;;;;;;27.02;13.40;;;;;;;7.31;100.00;99453.31;12201071;19;20397;-81
2023/04/21 06:14:00;;;;;;;22.15;12.73;;;;;;;7.44;100.00;99459.66;12199525;19;20026;-81
2023/04/21 06:18:02;;;;;;;26.23;12.80;;;;;;;7.58;100.00;99457.50;12179527;19;20019;-81
2023/04/21 06:22:04;;;;;;;25.50;11.65;;;;;;;7.72;100.00;99459.75;12198097;19;20076;-81
2023/04/21 06:26:08;;;;;;;23.80;12.18;;;;;;;7.90;100.00;99461.53;12197328;19;20014;-81
2023/04/21 06:30:12;;;;;;;26.00;12.57;;;;;;;8.17;100.00;99470.06;12171221;19;20046;-81
2023/04/21 06:34:14;;;;;;;26.93;12.37;;;;;;;8.35;100.00;99452.56;12203743;19;20006;-82
2023/04/21 06:38:18;;;;;;;24.30;12.23;;;;;;;8.58;100.00;99465.41;12203919;19;20087;-81
2023/04/21 06:42:20;;;;;;;24.23;12.53;;;;;;;8.78;100.00;99475.16;12169114;19;20032;-81
2023/04/21 06:46:21;;;;;;;19.45;11.57;;;;;;;8.87;100.00;99482.72;12190986;19;20364;-82
2023/04/21 06:50:23;;;;;;;23.67;13.02;;;;;;;8.98;100.00;99486.47;12224270;19;20046;-82
2023/04/21 06:54:26;;;;;;;23.17;11.35;;;;;;;9.05;100.00;99483.59;12197893;19;20031;-82
2023/04/21 06:58:28;;;;;;;;;;;;;;;9.21;100.00;99487.44;12261837;19;19995;-84
2023/04/21 07:02:30;;;;;;;18.87;10.37;;;;;;;9.48;100.00;99482.09;12262509;19;19923;-83
2023/04/21 07:06:32;;;;;;;22.92;11.77;;;;;;;9.69;100.00;99480.50;12225540;19;20053;-83
2023/04/21 07:10:37;;;;;;;19.77;11.27;;;;;;;9.98;100.00;99472.94;12258476;19;20007;-85
2023/04/21 07:14:39;;;;;;;19.30;10.88;;;;;;;10.27;100.00;99470.88;12245278;19;20031;-83
2023/04/21 07:18:41;;;;;;;17.93;10.23;;;;;;;10.58;100.00;99487.78;12263434;19;20006;-82
2023/04/21 07:22:43;;;;;;;18.40;10.30;;;;;;;10.78;100.00;99474.22;12246589;19;20014;-82
2023/04/21 07:26:45;;;;;;;17.42;9.65;;;;;;;10.89;100.00;99473.25;12213188;19;20010;-83
2023/04/21 07:30:47;;;;;;;13.43;8.65;;;;;;;10.97;100.00;99473.84;12221777;19;20499;-82
2023/04/21 07:34:48;;;;;;;13.15;8.52;;;;;;;11.03;100.00;99483.84;12225285;19;20042;-82
2023/04/21 07:38:52;;;;;;;13.82;8.13;;;;;;;11.08;100.00;99492.16;12210414;19;19992;-83
2023/04/21 07:42:54;;;;;;;15.80;8.93;;;;;;;11.13;100.00;99483.97;12236582;19;20052;-82
2023/04/21 07:46:56;;;;;;;14.40;7.82;;;;;;;11.16;100.00;99469.66;12239089;19;20015;-83
2023/04/21 07:50:59;;;;;;;14.32;7.97;;;;;;;11.20;100.00;99472.69;12213959;19;20383;-83
2023/04/21 07:55:01;;;;;;;15.07;8.95;;;;;;;11.20;100.00;99462.50;12240271;19;20003;-83
2023/04/21 07:59:02;;;;;;;16.83;9.43;;;;;;;11.30;100.00;99473.63;12254607;19;20002;-82
2023/04/21 08:03:04;;;;;;;17.13;10.05;;;;;;;11.58;100.00;99468.88;12211202;19;20145;-82
2023/04/21 08:07:08;;;;;;;14.48;9.73;;;;;;;11.86;100.00;99471.28;12231548;19;20070;-81
2023/04/21 08:11:10;;;;;;;13.18;8.48;;;;;;;11.99;100.00;99469.19;12230568;19;20042;-81
2023/04/21 08:15:12;;;;;;;15.00;8.35;;;;;;;12.09;100.00;99472.00;12204287;19;20854;-81
2023/04/21 08:19:14;;;;;;;16.38;8.25;;;;;;;12.40;100.00;99467.41;12218666;19;20494;-82
2023/04/21 08:23:15;;;;;;;12.90;7.85;;;;;;;12.88;100.00;99462.63;12223351;19;20063;-83
2023/04/21 08:27:17;;;;;;;14.95;8.65;;;;;;;13.34;100.00;99473.75;12194346;19;20059;-81
2023/04/21 08:31:19;;;;;;;12.50;7.40;;;;;;;13.84;100.00;99471.22;12221169;19;20066;-81
2023/04/21 08:35:21;;;;;;;12.43;7.53;;;;;;;14.13;100.00;99465.91;12217688;19;20010;-81
2023/04/21 08:39:23;;;;;;;16.65;9.95;;;;;;;14.06;100.00;99460.63;12196579;19;20070;-82
2023/04/21 08:43:25;;;;;;;16.45;9.10;;;;;;;13.97;100.00;99450.41;12213339;19;20002;-81
2023/04/21 08:47:28;;;;;;;14.43;9.50;;;;;;;13.84;100.00;99451.84;12216930;19;20010;-81
2023/04/21 08:51:30;;;;;;;16.98;9.15;;;;;;;13.35;100.00;99438.59;12191083;19;20066;-82
2023/04/21 08:55:32;;;;;;;14.40;9.25;;;;;;;12.99;100.00;99441.31;12214851;19;20002;-82
2023/04/21 08:59:34;;;;;;;16.60;9.73;;;;;;;12.91;100.00;99439.94;12191410;19;20378;-82
2023/04/21 09:03:36;;;;;;;18.88;11.13;;;;;;;12.99;100.00;99433.03;12213531;19;20529;-82
2023/04/21 09:07:40;;;;;;;18.73;10.23;;;;;;;13.06;100.00;99422.53;12219129;19;20042;-81
2023/04/21 09:11:43;;;;;;;17.77;10.48;;;;;;;13.45;100.00;99433.06;12191760;19;20031;-82
2023/04/21 09:15:50;;;;;;;17.52;10.75;;;;;;;13.91;100.00;99428.25;12209770;19;20003;-80
2023/04/21 09:19:51;;;;;;;19.92;10.27;;;;;;;13.95;97.41;99434.09;12205552;19;20014;-81
2023/04/21 09:23:56;;;;;;;17.17;10.63;;;;;;;14.16;98.81;99445.09;12189260;19;20018;-82
2023/04/21 09:28:01;;;;;;;16.98;11.38;;;;;;;14.41;99.89;99453.31;12262939;19;20003;-79
2023/04/21 09:32:10;;;;;;;18.83;12.20;;;;;;;14.94;94.21;99445.28;12268858;19;19998;-81
2023/04/21 09:36:25;;;;;;;20.95;12.18;;;;;;;15.20;94.22;99439.53;12245071;19;20002;-80
2023/04/21 09:40:28;;;;;;;20.17;12.00;;;;;;;15.10;93.42;99436.84;12247137;19;20038;-81
2023/04/21 09:44:32;;;;;;;18.50;11.43;;;;;;;14.80;95.28;99438.72;12242664;19;19996;-81
2023/04/21 09:48:52;;;;;;;21.05;12.27;;;;;;;14.82;94.12;99442.03;12256857;19;20022;-81
2023/04/21 09:52:55;;;;;;;;;;;;;;;14.90;93.22;99446.13;12250637;19;20002;-80
2023/04/21 09:57:00;;;;;;;16.73;9.98;;;;;;;15.22;88.74;99438.13;12206350;19;19956;-81
2023/04/21 10:01:03;;;;;;;18.35;11.57;;;;;;;16.00;88.23;99427.97;12203061;19;20010;-81
2023/04/21 10:05:06;;;;;;;17.67;11.13;;;;;;;16.27;84.20;99421.84;12207202;19;20027;-81
2023/04/21 10:09:10;;;;;;;21.83;13.43;;;;;;;16.34;82.11;99418.69;12191976;19;20015;-81
2023/04/21 10:13:17;;;;;;;22.60;12.68;;;;;;;15.73;81.17;99423.00;12207097;19;20725;-80
2023/04/21 10:17:24;;;;;;;18.75;11.60;;;;;;;15.28;83.73;99419.50;12207153;19;20711;-81
2023/04/21 10:21:27;;;;;;;22.70;13.23;;;;;;;15.04;84.21;99416.63;12176657;19;20006;-80
2023/04/21 10:25:29;;;;;;;22.25;13.48;;;;;;;15.04;86.61;99420.25;12196546;19;20103;-80
2023/04/21 10:29:33;;;;;;;21.83;13.10;;;;;;;15.45;84.62;99421.84;12199463;19;20388;-80
2023/04/21 10:34:04;;;;;;;30.10;13.82;;;;;;;15.18;85.36;99420.41;12175067;19;20003;-81
2023/04/21 10:38:06;;;;;;;25.25;14.45;;;;;;;14.96;84.59;99422.78;12197291;19;20003;-81
2023/04/21 10:42:11;;;;;;;23.00;14.18;;;;;;;15.06;85.50;99419.97;12175898;19;20006;-80
2023/04/21 10:46:40;;;;;;;25.20;15.27;;;;;;;14.68;87.41;99408.56;12195830;19;20006;-79
2023/04/21 10:50:43;;;;;;;23.38;14.48;;;;;;;14.73;89.09;99413.25;12174154;19;20027;-80
2023/04/21 10:54:45;;;;;;;24.63;14.00;;;;;;;14.79;88.26;99414.88;12195837;19;20014;-81
2023/04/21 10:58:48;;;;;;;22.03;13.90;;;;;;;15.29;88.33;99412.84;12192048;19;20011;-81
2023/04/21 11:02:58;;;;;;;23.35;14.75;;;;;;;15.59;83.97;99410.91;12173257;19;20010;-81
2023/04/21 11:07:09;;;;;;;26.63;14.10;;;;;;;15.71;84.38;99400.25;12196005;19;20010;-81
2023/04/21 11:11:21;;;;;;;23.88;13.85;;;;;;;15.83;84.02;99391.53;12190849;19;20007;-81
2023/04/21 11:15:23;;;;;;;23.25;14.40;;;;;;;15.86;84.34;99379.81;12171968;19;20066;-80
2023/04/21 11:19:25;;;;;;;23.60;14.15;;;;;;;16.16;83.35;99376.66;12195564;19;20021;-80
2023/04/21 11:23:28;;;;;;;23.60;13.48;;;;;;;16.64;79.34;99372.94;12188977;19;20019;-80
2023/04/21 11:27:30;;;;;;;21.67;12.93;;;;;;;16.97;77.85;99379.44;12170577;19;20013;-79
2023/04/21 11:31:32;;;;;;;20.98;12.90;;;;;;;16.93;76.42;99366.44;12216695;19;20014;-79
2023/04/21 11:35:38;;;;;;;19.90;12.45;;;;;;;17.21;75.33;99365.38;12186110;19;19999;-81
2023/04/21 11:39:42;;;;;;;22.92;12.77;;;;;;;17.49;73.66;99357.09;12221116;19;20427;-79
2023/04/21 11:43:45;;;;;;;19.13;11.30;;;;;;;18.36;72.64;99353.44;12243636;19;20028;-79
2023/04/21 11:47:46;;;;;;;18.38;12.25;;;;;;;19.05;68.98;99355.19;12185913;19;20436;-83
2023/04/21 11:51:49;;;;;;;21.30;13.97;;;;;;;20.10;63.32;99342.63;12194315;19;20010;-81
2023/04/21 11:55:50;;;;;;;20.05;12.98;;;;;;;21.08;60.48;99341.25;12197964;19;20007;-82
2023/04/21 11:59:59;;;;;;;19.50;12.65;;;;;;;20.75;54.91;99333.34;12173603;19;21247;-81
2023/04/21 12:04:02;;;;;;;22.40;14.15;;;;;;;20.65;58.62;99339.28;12193680;19;20010;-80
2023/04/21 12:08:05;;;;;;;20.23;13.93;;;;;;;21.48;56.26;99324.25;12198932;19;20018;-82
2023/04/21 12:12:08;;;;;;;19.65;13.43;;;;;;;22.09;53.64;99333.19;12173645;19;20006;-79
2023/04/21 12:16:11;;;;;;;17.07;12.73;;;;;;;21.69;51.69;99332.75;12192482;19;20031;-79
2023/04/21 12:20:19;;;;;;;20.80;13.57;;;;;;;21.26;51.36;99319.63;12192750;19;20259;-81
2023/04/21 12:24:21;;;;;;;17.67;12.35;;;;;;;21.44;52.83;99323.25;12164144;19;20112;-80
2023/04/21 12:28:23;;;;;;;16.23;11.73;;;;;;;22.03;50.52;99328.94;12195669;19;23441;-80
2023/04/21 12:32:25;;;;;;;16.70;12.50;;;;;;;23.08;49.77;99324.28;12199595;19;20015;-80
2023/04/21 12:36:29;;;;;;;18.55;13.02;;;;;;;23.37;46.15;99330.91;12184737;19;20800;-79
2023/04/21 12:40:32;;;;;;;17.40;13.32;;;;;;;23.62;43.70;99321.38;12199703;19;20103;-78
2023/04/21 12:44:34;;;;;;;17.05;12.88;;;;;;;24.15;43.78;99310.28;12181785;19;20528;-79
2023/04/21 12:48:36;;;;;;;15.68;12.27;;;;;;;24.28;42.58;99306.28;12197411;19;20530;-79
2023/04/21 12:52:38;;;;;;;16.67;12.45;;;;;;;24.12;43.36;99299.72;12205085;19;20736;-80
2023/04/21 12:56:42;;;;;;;14.23;11.43;;;;;;;23.92;43.46;99300.69;12185294;19;20014;-81
2023/04/21 13:00:44;;;;;;;;;;;;;;;24.26;42.63;99291.75;12213234;19;20010;-80
2023/04/21 13:04:47;;;;;;;14.17;11.17;;;;;;;24.30;40.84;99289.88;12207431;19;19915;-78
2023/04/21 13:08:49;;;;;;;14.35;11.23;;;;;;;24.62;41.90;99289.25;12195847;19;20010;-78
2023/04/21 13:12:52;;;;;;;15.63;11.48;;;;;;;25.20;39.82;99293.38;12212826;19;20011;-78
2023/04/21 13:16:55;;;;;;;16.80;11.35;;;;;;;24.41;40.69;99280.94;12211912;19;20690;-79
2023/04/21 13:20:56;;;;;;;15.85;11.98;;;;;;;23.27;42.54;99281.59;12180015;19;20015;-79
2023/04/21 13:24:59;;;;;;;13.73;10.18;;;;;;;23.87;42.69;99273.59;12208306;19;20006;-80
2023/04/21 13:29:01;;;;;;;;;;;;;;;24.99;41.33;99265.38;12202392;19;20026;-80
2023/04/21 13:33:03;;;;;;;12.70;9.93;;;;;;;25.75;38.59;99262.56;12176387;19;19917;-80
2023/04/21 13:37:07;;;;;;;13.77;10.85;;;;;;;26.22;38.07;99258.88;12199521;19;20047;-79
2023/04/21 13:41:10;;;;;;;14.90;11.68;;;;;;;26.55;36.82;99241.50;12205304;19;20017;-80
2023/04/21 13:45:11;;;;;;;;;;;;;;;26.29;36.73;99236.44;12187172;19;20070;-80
2023/04/21 13:49:13;;;;;;;12.38;9.10;;;;;;;26.57;36.78;99227.00;12202132;19;19930;-80
2023/04/21 13:53:15;;;;;;;11.88;9.23;;;;;;;27.18;36.07;99222.56;12200225;19;20011;-79
2023/04/21 13:57:20;;;;;;;14.50;9.05;;;;;;;27.31;34.71;99217.53;12184897;19;20030;-81
2023/04/21 14:01:22;;;;;;;;;;;;;;;27.41;34.61;99197.13;12202821;19;20007;-80
2023/04/21 14:05:24;;;;;;;10.45;7.90;;;;;;;26.97;35.75;99197.50;12197463;19;19922;-80
2023/04/21 14:09:26;;;;;;;11.65;8.13;;;;;;;25.94;36.62;99190.47;12180368;19;20615;-79
2023/04/21 14:13:29;;;;;;;12.93;9.45;;;;;;;24.77;38.29;99178.59;12199868;19;20050;-78
2023/04/21 14:17:42;;;;;;;10.80;8.13;;;;;;;23.96;39.34;99175.81;12179368;19;20425;-80
2023/04/21 14:21:44;;;;;;;11.13;7.13;;;;;;;23.53;40.63;99170.78;12196911;19;20019;-81
2023/04/21 14:25:46;;;;;;;8.63;6.22;;;;;;;23.10;41.70;99169.38;12190902;19;20020;-79
2023/04/21 14:29:48;;;;;;;8.27;6.45;;;;;;;23.30;41.15;99162.84;12174959;19;20010;-80
2023/04/21 14:33:54;;;;;;;8.75;6.70;;;;;;;23.23;41.27;99153.34;12193668;19;20010;-80
2023/04/21 14:37:59;;;;;;;;;;;;;;;22.84;42.33;99149.97;12199179;19;20014;-79
2023/04/21 14:42:01;;;;;;;10.75;6.97;;;;;;;22.16;42.57;99144.66;12176814;19;19938;-81
2023/04/21 14:46:04;;;;;;;10.73;7.10;;;;;;;21.68;43.73;99144.03;12196994;19;20006;-79
2023/04/21 14:50:06;;;;;;;;;;;;;;;21.80;44.47;99144.13;12196680;19;20031;-79
2023/04/21 14:54:08;;;;;;;8.20;5.90;;;;;;;22.54;43.86;99136.06;12169803;19;19913;-80
2023/04/21 14:58:10;;;;;;;9.82;6.32;;;;;;;22.85;42.47;99129.16;12195806;19;20018;-81
2023/04/21 15:02:12;;;;;;;8.93;6.20;;;;;;;22.96;42.41;99116.31;12197644;19;20002;-79
2023/04/21 15:06:15;;;;;;;;;;;;;;;22.44;43.26;99112.06;12177971;19;20416;-78
2023/04/21 15:10:16;;;;;;;7.13;5.70;;;;;;;21.89;44.64;99103.97;12206434;19;19982;-80
2023/04/21 15:14:18;;;;;;;8.15;5.97;;;;;;;21.38;45.82;99096.41;12205559;19;20007;-80
2023/04/21 15:18:21;;;;;;;10.52;6.38;;;;;;;21.08;47.34;99086.34;12228899;19;20005;-78
2023/04/21 15:22:23;;;;;;;9.00;5.82;;;;;;;20.92;47.57;99086.91;12264405;19;20012;-78
2023/04/21 15:26:25;;;;;;;8.88;6.43;;;;;;;20.79;47.95;99073.97;12227407;19;20017;-80
2023/04/21 15:30:28;;;;;;;8.25;5.57;;;;;;;20.65;48.58;99064.97;12187032;19;20074;-80
2023/04/21 15:34:30;;;;;;;8.80;6.13;;;;;;;20.65;49.23;99074.19;12210331;19;20010;-80
2023/04/21 15:38:32;;;;;;;10.00;7.30;;;;;;;20.53;48.85;99071.25;12195719;19;20014;-81
2023/04/21 15:42:36;;;;;;;8.20;5.53;;;;;;;20.47;50.04;99065.00;12202035;19;20015;-79
2023/04/21 15:46:37;;;;;;;10.57;6.50;;;;;;;20.33;49.91;99060.75;12208668;19;20095;-80
2023/04/21 15:50:39;;;;;;;7.53;5.70;;;;;;;20.34;50.50;99066.00;12183843;19;20019;-81
2023/04/21 15:54:44;;;;;;;9.43;5.83;;;;;;;20.74;50.03;99067.72;12202734;19;20027;-80
2023/04/21 15:58:46;;;;;;;9.27;5.95;;;;;;;21.01;50.60;99058.06;12206021;19;20011;-79
2023/04/21 16:02:48;;;;;;;8.23;6.23;;;;;;;21.63;49.35;99046.13;12189716;19;20041;-80
2023/04/21 16:06:51;;;;;;;9.43;6.45;;;;;;;22.30;47.72;99047.81;12212881;19;20007;-81
2023/04/21 16:10:56;;;;;;;7.85;5.82;;;;;;;23.04;45.13;99038.69;12256593;19;20023;-78
2023/04/21 16:14:58;;;;;;;6.85;5.15;;;;;;;23.66;42.67;99034.63;12247124;19;20006;-80
2023/04/21 16:19:16;;;;;;;8.75;5.60;;;;;;;23.94;42.37;99033.84;12273310;19;20034;-80
2023/04/21 16:23:19;;;;;;;9.30;5.45;;;;;;;23.29;42.43;99037.53;12273936;19;20015;-79
2023/04/21 16:27:21;;;;;;;6.95;5.05;;;;;;;23.61;42.28;99024.44;12249352;19;20007;-78
2023/04/21 16:31:22;;;;;;;9.23;5.53;;;;;;;23.85;40.83;99025.56;12262419;19;20054;-79
2023/04/21 16:35:24;;;;;;;6.38;4.72;;;;;;;24.15;40.72;99025.19;12232788;19;20025;-81
2023/04/21 16:39:27;;;;;;;7.65;4.95;;;;;;;23.84;41.13;99023.91;12191498;19;20010;-82
2023/04/21 16:43:29;;;;;;;9.33;5.60;;;;;;;23.63;41.20;99026.91;12211236;19;20015;-82
2023/04/21 16:47:34;;;;;;;8.23;5.50;;;;;;;23.28;42.49;99032.25;12213596;19;20258;-81
2023/04/21 16:51:43;;;;;;;6.43;4.70;;;;;;;22.82;43.08;99029.56;12190781;19;20260;-82
2023/04/21 16:55:45;;;;;;;7.47;5.30;;;;;;;21.89;45.13;99031.88;12209525;19;20006;-82
2023/04/21 16:59:47;;;;;;;7.83;4.93;;;;;;;21.90;45.51;99027.91;12186162;19;20031;-82
2023/04/21 17:03:49;;;;;;;6.43;5.10;;;;;;;21.56;46.50;99035.44;12204675;19;20011;-82
2023/04/21 17:07:51;;;;;;;8.40;4.80;;;;;;;20.94;47.87;99034.19;12202319;19;20689;-82
2023/04/21 17:11:53;;;;;;;5.97;4.25;;;;;;;20.40;49.20;99039.47;12186222;19;19999;-84
2023/04/21 17:15:56;;;;;;;8.55;4.75;;;;;;;19.89;50.76;99041.22;12207739;19;20696;-82
2023/04/21 17:19:58;;;;;;;;;;;;;;;19.36;51.98;99056.31;12210390;19;20010;-83
2023/04/21 17:24:00;;;;;;;6.45;4.50;;;;;;;19.01;53.56;99073.00;12182657;19;19978;-82
2023/04/21 17:28:02;;;;;;;4.00;2.13;;;;;;;18.57;50.11;99118.59;12209328;19;20003;-82
2023/04/21 17:32:04;;;;;;;2.40;1.60;;;;;;;17.99;47.58;99120.31;12210603;19;20383;-83
2023/04/21 17:36:06;;;;;;;2.87;1.40;;;;;;;17.59;47.96;99106.19;12184979;19;20310;-79
2023/04/21 17:40:09;;;;;;;3.43;1.30;;;;;;;17.24;48.74;99105.84;12206772;19;20030;-80
2023/04/21 17:44:11;;;;;;;3.83;1.50;;;;;;;16.93;49.39;99107.63;12207323;19;20031;-79
2023/04/21 17:48:13;;;;;;;2.03;1.03;;;;;;;16.77;49.43;99087.59;12186291;19;20054;-79
2023/04/21 17:52:15;;;;;;;1.75;1.20;;;;;;;16.69;50.39;99071.63;12202297;19;20003;-78
2023/04/21 17:56:17;;;;;;;1.90;1.10;;;;;;;16.59;51.49;99069.84;12210739;19;20010;-78
2023/04/21 18:00:20;;;;;;;2.78;1.13;;;;;;;16.43;53.22;99069.31;12181512;19;20007;-79
2023/04/21 18:04:23;;;;;;;2.10;1.20;;;;;;;16.27;54.66;99068.78;12197700;19;20762;-79
2023/04/21 18:08:26;;;;;;;2.75;1.33;;;;;;;16.12;56.81;99074.59;12193441;19;20034;-79
2023/04/21 18:12:27;;;;;;;3.17;1.10;;;;;;;16.00;57.47;99077.84;12184090;19;20441;-79
2023/04/21 18:16:29;;;;;;;5.00;1.33;;;;;;;15.88;57.88;99072.78;12212979;19;20025;-79
2023/04/21 18:20:31;;;;;;;6.17;1.10;;;;;;;15.77;59.57;99073.25;12211715;19;20015;-79
2023/04/21 18:24:33;;;;;;;2.33;1.25;;;;;;;15.58;61.30;99062.94;12180880;19;20030;-79
2023/04/21 18:28:35;;;;;;;2.58;1.25;;;;;;;15.37;62.60;99056.03;12208657;19;20014;-79
2023/04/21 18:32:37;;;;;;;3.23;1.37;;;;;;;15.11;64.74;99050.00;12179094;19;20010;-79
2023/04/21 18:36:41;;;;;;;6.17;2.17;;;;;;;14.79;66.65;99049.59;12204363;19;20028;-79